sensor_id;sensor_type;location;lat;lon;timestamp;temperature;humidity
20560;DHT22;10438;51.454;6.718;2023-05-29T00:02:17;15.00;25.90
20560;DHT22;10438;51.454;6.718;2023-05-29T00:04:42;15.00;25.90
20560;DHT22;10438;51.454;6.718;2023-05-29T00:07:08;14.90;26.90
20560;DHT22;10438;51.454;6.718;2023-05-29T00:09:33;14.90;29.00
20560;DHT22;10438;51.454;6.718;2023-05-29T00:11:59;14.80;29.70
20560;DHT22;10438;51.454;6.718;2023-05-29T00:14:26;14.80;29.70
20560;DHT22;10438;51.454;6.718;2023-05-29T00:16:51;14.80;30.10
20560;DHT22;10438;51.454;6.718;2023-05-29T00:19:17;14.70;32.60
20560;DHT22;10438;51.454;6.718;2023-05-29T00:21:43;14.70;34.20
20560;DHT22;10438;51.454;6.718;2023-05-29T00:24:09;14.70;35.60
20560;DHT22;10438;51.454;6.718;2023-05-29T00:26:34;14.50;36.80
20560;DHT22;10438;51.454;6.718;2023-05-29T00:29:01;14.50;40.40
20560;DHT22;10438;51.454;6.718;2023-05-29T00:31:26;14.50;46.30
20560;DHT22;10438;51.454;6.718;2023-05-29T00:33:53;14.50;51.80
20560;DHT22;10438;51.454;6.718;2023-05-29T00:36:18;14.40;54.80
20560;DHT22;10438;51.454;6.718;2023-05-29T00:38:44;14.30;58.30
20560;DHT22;10438;51.454;6.718;2023-05-29T00:41:14;14.20;59.90
20560;DHT22;10438;51.454;6.718;2023-05-29T00:43:41;14.30;62.80
20560;DHT22;10438;51.454;6.718;2023-05-29T00:46:07;14.20;65.30
20560;DHT22;10438;51.454;6.718;2023-05-29T00:48:33;14.20;68.00
20560;DHT22;10438;51.454;6.718;2023-05-29T00:50:59;14.10;69.50
20560;DHT22;10438;51.454;6.718;2023-05-29T00:53:25;14.10;72.80
20560;DHT22;10438;51.454;6.718;2023-05-29T00:55:51;14.00;75.10
20560;DHT22;10438;51.454;6.718;2023-05-29T00:58:17;14.00;80.00
20560;DHT22;10438;51.454;6.718;2023-05-29T01:00:43;13.90;84.90
20560;DHT22;10438;51.454;6.718;2023-05-29T01:03:08;13.80;89.70
20560;DHT22;10438;51.454;6.718;2023-05-29T01:05:35;13.70;90.70
20560;DHT22;10438;51.454;6.718;2023-05-29T01:08:02;13.70;92.30
20560;DHT22;10438;51.454;6.718;2023-05-29T01:10:27;13.60;93.30
20560;DHT22;10438;51.454;6.718;2023-05-29T01:13:23;13.50;94.10
20560;DHT22;10438;51.454;6.718;2023-05-29T01:16:03;13.50;94.00
20560;DHT22;10438;51.454;6.718;2023-05-29T01:18:51;13.50;93.60
20560;DHT22;10438;51.454;6.718;2023-05-29T01:21:38;13.50;93.50
20560;DHT22;10438;51.454;6.718;2023-05-29T01:24:15;13.30;92.40
20560;DHT22;10438;51.454;6.718;2023-05-29T01:27:02;13.30;94.10
20560;DHT22;10438;51.454;6.718;2023-05-29T01:29:30;13.20;97.40
20560;DHT22;10438;51.454;6.718;2023-05-29T01:31:58;13.20;98.90
20560;DHT22;10438;51.454;6.718;2023-05-29T01:34:24;13.20;99.90
20560;DHT22;10438;51.454;6.718;2023-05-29T01:36:49;13.10;98.80
20560;DHT22;10438;51.454;6.718;2023-05-29T01:39:16;13.00;99.10
20560;DHT22;10438;51.454;6.718;2023-05-29T01:41:43;13.00;99.30
20560;DHT22;10438;51.454;6.718;2023-05-29T01:44:09;12.90;96.60
20560;DHT22;10438;51.454;6.718;2023-05-29T01:46:37;12.80;96.30
20560;DHT22;10438;51.454;6.718;2023-05-29T01:49:03;12.80;95.60
20560;DHT22;10438;51.454;6.718;2023-05-29T01:51:29;12.60;95.30
20560;DHT22;10438;51.454;6.718;2023-05-29T01:53:57;12.60;95.90
20560;DHT22;10438;51.454;6.718;2023-05-29T01:56:23;12.60;95.10
20560;DHT22;10438;51.454;6.718;2023-05-29T01:58:50;12.50;95.50
20560;DHT22;10438;51.454;6.718;2023-05-29T02:01:16;12.50;97.10
20560;DHT22;10438;51.454;6.718;2023-05-29T02:03:41;12.50;96.90
20560;DHT22;10438;51.454;6.718;2023-05-29T02:06:07;12.50;96.20
20560;DHT22;10438;51.454;6.718;2023-05-29T02:08:32;12.50;96.40
20560;DHT22;10438;51.454;6.718;2023-05-29T02:10:58;12.40;96.70
20560;DHT22;10438;51.454;6.718;2023-05-29T02:13:24;12.40;97.40
20560;DHT22;10438;51.454;6.718;2023-05-29T02:15:49;12.30;98.10
20560;DHT22;10438;51.454;6.718;2023-05-29T02:18:15;12.30;98.10
20560;DHT22;10438;51.454;6.718;2023-05-29T02:20:42;12.30;98.10
20560;DHT22;10438;51.454;6.718;2023-05-29T02:23:09;12.30;98.30
20560;DHT22;10438;51.454;6.718;2023-05-29T02:25:34;12.20;97.90
20560;DHT22;10438;51.454;6.718;2023-05-29T02:28:01;12.10;98.10
20560;DHT22;10438;51.454;6.718;2023-05-29T02:30:27;12.20;98.10
20560;DHT22;10438;51.454;6.718;2023-05-29T02:32:53;12.10;97.60
20560;DHT22;10438;51.454;6.718;2023-05-29T02:35:19;12.10;97.70
20560;DHT22;10438;51.454;6.718;2023-05-29T02:37:48;12.00;96.40
20560;DHT22;10438;51.454;6.718;2023-05-29T02:40:13;12.00;97.50
20560;DHT22;10438;51.454;6.718;2023-05-29T02:42:42;12.00;97.60
20560;DHT22;10438;51.454;6.718;2023-05-29T02:45:08;12.00;98.00
20560;DHT22;10438;51.454;6.718;2023-05-29T02:47:34;11.90;98.60
20560;DHT22;10438;51.454;6.718;2023-05-29T02:50:00;11.90;98.70
20560;DHT22;10438;51.454;6.718;2023-05-29T02:52:25;11.90;99.50
20560;DHT22;10438;51.454;6.718;2023-05-29T02:54:50;11.90;99.30
20560;DHT22;10438;51.454;6.718;2023-05-29T02:57:16;11.90;99.30
20560;DHT22;10438;51.454;6.718;2023-05-29T02:59:42;11.90;98.30
20560;DHT22;10438;51.454;6.718;2023-05-29T03:02:09;11.90;98.10
20560;DHT22;10438;51.454;6.718;2023-05-29T03:04:35;11.80;99.10
20560;DHT22;10438;51.454;6.718;2023-05-29T03:07:00;11.80;99.60
20560;DHT22;10438;51.454;6.718;2023-05-29T03:09:26;11.80;99.20
20560;DHT22;10438;51.454;6.718;2023-05-29T03:11:51;11.80;99.90
20560;DHT22;10438;51.454;6.718;2023-05-29T03:14:17;11.80;99.90
20560;DHT22;10438;51.454;6.718;2023-05-29T03:16:44;11.70;99.90
20560;DHT22;10438;51.454;6.718;2023-05-29T03:19:10;11.70;99.90
20560;DHT22;10438;51.454;6.718;2023-05-29T03:21:36;11.60;99.90
20560;DHT22;10438;51.454;6.718;2023-05-29T03:24:02;11.60;99.90
20560;DHT22;10438;51.454;6.718;2023-05-29T03:26:30;11.50;99.90
20560;DHT22;10438;51.454;6.718;2023-05-29T03:28:56;11.50;99.90
20560;DHT22;10438;51.454;6.718;2023-05-29T03:31:21;11.40;99.90
20560;DHT22;10438;51.454;6.718;2023-05-29T03:33:47;11.40;99.90
20560;DHT22;10438;51.454;6.718;2023-05-29T03:36:13;11.30;99.90
20560;DHT22;10438;51.454;6.718;2023-05-29T03:38:39;11.30;99.90
20560;DHT22;10438;51.454;6.718;2023-05-29T03:41:05;11.30;99.90
20560;DHT22;10438;51.454;6.718;2023-05-29T03:43:30;11.20;99.90
20560;DHT22;10438;51.454;6.718;2023-05-29T03:45:56;11.20;99.90
20560;DHT22;10438;51.454;6.718;2023-05-29T03:48:21;11.20;99.90
20560;DHT22;10438;51.454;6.718;2023-05-29T03:50:47;11.10;99.90
20560;DHT22;10438;51.454;6.718;2023-05-29T03:53:13;11.10;99.90
20560;DHT22;10438;51.454;6.718;2023-05-29T03:55:38;11.10;99.90
20560;DHT22;10438;51.454;6.718;2023-05-29T03:58:04;11.10;99.90
20560;DHT22;10438;51.454;6.718;2023-05-29T04:00:29;11.10;99.90
20560;DHT22;10438;51.454;6.718;2023-05-29T04:02:56;11.00;99.90
20560;DHT22;10438;51.454;6.718;2023-05-29T04:05:21;11.10;99.90
20560;DHT22;10438;51.454;6.718;2023-05-29T04:07:47;11.10;99.90
20560;DHT22;10438;51.454;6.718;2023-05-29T04:10:12;11.10;99.90
20560;DHT22;10438;51.454;6.718;2023-05-29T04:12:38;11.10;99.90
20560;DHT22;10438;51.454;6.718;2023-05-29T04:15:04;11.10;99.90
20560;DHT22;10438;51.454;6.718;2023-05-29T04:17:30;11.00;99.90
20560;DHT22;10438;51.454;6.718;2023-05-29T04:19:56;11.10;99.90
20560;DHT22;10438;51.454;6.718;2023-05-29T04:22:21;11.00;99.90
20560;DHT22;10438;51.454;6.718;2023-05-29T04:24:47;10.90;99.90
20560;DHT22;10438;51.454;6.718;2023-05-29T04:27:12;11.00;99.90
20560;DHT22;10438;51.454;6.718;2023-05-29T04:29:42;11.00;99.90
20560;DHT22;10438;51.454;6.718;2023-05-29T04:32:11;11.10;99.90
20560;DHT22;10438;51.454;6.718;2023-05-29T04:34:37;11.00;99.90
20560;DHT22;10438;51.454;6.718;2023-05-29T04:37:04;11.00;99.90
20560;DHT22;10438;51.454;6.718;2023-05-29T04:39:30;11.00;99.90
20560;DHT22;10438;51.454;6.718;2023-05-29T04:41:56;11.00;99.90
20560;DHT22;10438;51.454;6.718;2023-05-29T04:44:24;11.10;99.90
20560;DHT22;10438;51.454;6.718;2023-05-29T04:46:55;11.10;99.90
20560;DHT22;10438;51.454;6.718;2023-05-29T04:49:22;11.10;99.90
20560;DHT22;10438;51.454;6.718;2023-05-29T04:51:48;11.10;99.90
20560;DHT22;10438;51.454;6.718;2023-05-29T04:54:13;11.10;99.90
20560;DHT22;10438;51.454;6.718;2023-05-29T04:56:39;11.20;99.90
20560;DHT22;10438;51.454;6.718;2023-05-29T04:59:07;11.20;99.90
20560;DHT22;10438;51.454;6.718;2023-05-29T05:01:33;11.20;99.90
20560;DHT22;10438;51.454;6.718;2023-05-29T05:03:59;11.20;99.90
20560;DHT22;10438;51.454;6.718;2023-05-29T05:06:25;11.20;99.90
20560;DHT22;10438;51.454;6.718;2023-05-29T05:08:51;11.20;99.90
20560;DHT22;10438;51.454;6.718;2023-05-29T05:11:18;11.30;99.90
20560;DHT22;10438;51.454;6.718;2023-05-29T05:13:43;11.30;99.90
20560;DHT22;10438;51.454;6.718;2023-05-29T05:16:09;11.30;99.90
20560;DHT22;10438;51.454;6.718;2023-05-29T05:18:35;11.30;99.90
20560;DHT22;10438;51.454;6.718;2023-05-29T05:21:01;11.30;99.90
20560;DHT22;10438;51.454;6.718;2023-05-29T05:23:28;11.40;99.90
20560;DHT22;10438;51.454;6.718;2023-05-29T05:25:53;11.40;99.90
20560;DHT22;10438;51.454;6.718;2023-05-29T05:28:19;11.40;99.90
20560;DHT22;10438;51.454;6.718;2023-05-29T05:30:44;11.40;99.90
20560;DHT22;10438;51.454;6.718;2023-05-29T05:33:10;11.40;99.90
20560;DHT22;10438;51.454;6.718;2023-05-29T05:35:36;11.50;99.90
20560;DHT22;10438;51.454;6.718;2023-05-29T05:38:02;11.60;99.90
20560;DHT22;10438;51.454;6.718;2023-05-29T05:40:28;11.60;99.90
20560;DHT22;10438;51.454;6.718;2023-05-29T05:42:54;11.70;99.90
20560;DHT22;10438;51.454;6.718;2023-05-29T05:45:19;11.80;99.90
20560;DHT22;10438;51.454;6.718;2023-05-29T05:47:46;11.80;99.90
20560;DHT22;10438;51.454;6.718;2023-05-29T05:50:11;11.80;99.90
20560;DHT22;10438;51.454;6.718;2023-05-29T05:52:37;11.90;99.90
20560;DHT22;10438;51.454;6.718;2023-05-29T05:55:03;12.00;99.90
20560;DHT22;10438;51.454;6.718;2023-05-29T05:57:28;12.10;99.90
20560;DHT22;10438;51.454;6.718;2023-05-29T05:59:54;12.10;99.90
20560;DHT22;10438;51.454;6.718;2023-05-29T06:02:19;12.20;99.90
20560;DHT22;10438;51.454;6.718;2023-05-29T06:04:45;12.30;99.90
20560;DHT22;10438;51.454;6.718;2023-05-29T06:07:11;12.30;99.90
20560;DHT22;10438;51.454;6.718;2023-05-29T06:09:37;12.40;99.90
20560;DHT22;10438;51.454;6.718;2023-05-29T06:12:03;12.40;99.90
20560;DHT22;10438;51.454;6.718;2023-05-29T06:14:28;12.50;99.90
20560;DHT22;10438;51.454;6.718;2023-05-29T06:16:54;12.50;99.90
20560;DHT22;10438;51.454;6.718;2023-05-29T06:19:19;12.60;99.90
20560;DHT22;10438;51.454;6.718;2023-05-29T06:21:45;12.70;99.90
20560;DHT22;10438;51.454;6.718;2023-05-29T06:24:12;12.80;99.90
20560;DHT22;10438;51.454;6.718;2023-05-29T06:26:38;12.80;99.90
20560;DHT22;10438;51.454;6.718;2023-05-29T06:29:04;12.80;97.60
20560;DHT22;10438;51.454;6.718;2023-05-29T06:31:31;12.90;97.90
20560;DHT22;10438;51.454;6.718;2023-05-29T06:33:57;13.00;97.00
20560;DHT22;10438;51.454;6.718;2023-05-29T06:36:22;13.10;98.70
20560;DHT22;10438;51.454;6.718;2023-05-29T06:38:48;13.20;97.40
20560;DHT22;10438;51.454;6.718;2023-05-29T06:41:14;13.30;96.30
20560;DHT22;10438;51.454;6.718;2023-05-29T06:43:40;13.40;97.10
20560;DHT22;10438;51.454;6.718;2023-05-29T06:46:05;13.50;97.10
20560;DHT22;10438;51.454;6.718;2023-05-29T06:48:34;13.60;93.20
20560;DHT22;10438;51.454;6.718;2023-05-29T06:51:03;13.60;92.40
20560;DHT22;10438;51.454;6.718;2023-05-29T06:53:38;13.70;91.10
20560;DHT22;10438;51.454;6.718;2023-05-29T06:56:04;13.70;88.70
20560;DHT22;10438;51.454;6.718;2023-05-29T06:58:31;13.70;84.90
20560;DHT22;10438;51.454;6.718;2023-05-29T07:00:57;13.80;87.50
20560;DHT22;10438;51.454;6.718;2023-05-29T07:03:23;13.80;84.80
20560;DHT22;10438;51.454;6.718;2023-05-29T07:05:49;13.90;85.30
20560;DHT22;10438;51.454;6.718;2023-05-29T07:08:14;14.00;77.80
20560;DHT22;10438;51.454;6.718;2023-05-29T07:10:40;14.10;80.30
20560;DHT22;10438;51.454;6.718;2023-05-29T07:13:05;14.20;79.40
20560;DHT22;10438;51.454;6.718;2023-05-29T07:15:34;14.30;77.00
20560;DHT22;10438;51.454;6.718;2023-05-29T07:18:00;14.40;77.20
20560;DHT22;10438;51.454;6.718;2023-05-29T07:20:25;14.40;72.10
20560;DHT22;10438;51.454;6.718;2023-05-29T07:22:51;14.50;73.40
20560;DHT22;10438;51.454;6.718;2023-05-29T07:25:17;14.60;67.80
20560;DHT22;10438;51.454;6.718;2023-05-29T07:27:42;14.70;65.50
20560;DHT22;10438;51.454;6.718;2023-05-29T07:30:08;14.70;62.90
20560;DHT22;10438;51.454;6.718;2023-05-29T07:32:33;14.80;62.60
20560;DHT22;10438;51.454;6.718;2023-05-29T07:34:59;14.80;65.50
20560;DHT22;10438;51.454;6.718;2023-05-29T07:37:25;15.00;64.30
20560;DHT22;10438;51.454;6.718;2023-05-29T07:39:51;15.10;65.50
20560;DHT22;10438;51.454;6.718;2023-05-29T07:42:16;15.20;61.30
20560;DHT22;10438;51.454;6.718;2023-05-29T07:44:42;15.20;51.90
20560;DHT22;10438;51.454;6.718;2023-05-29T07:47:08;15.20;51.90
20560;DHT22;10438;51.454;6.718;2023-05-29T07:49:34;15.30;57.40
20560;DHT22;10438;51.454;6.718;2023-05-29T07:52:01;15.40;55.00
20560;DHT22;10438;51.454;6.718;2023-05-29T07:54:27;15.30;51.50
20560;DHT22;10438;51.454;6.718;2023-05-29T07:56:52;15.40;53.20
20560;DHT22;10438;51.454;6.718;2023-05-29T07:59:18;15.40;52.10
20560;DHT22;10438;51.454;6.718;2023-05-29T08:01:43;15.60;54.20
20560;DHT22;10438;51.454;6.718;2023-05-29T08:04:09;15.70;51.40
20560;DHT22;10438;51.454;6.718;2023-05-29T08:06:35;15.80;51.20
20560;DHT22;10438;51.454;6.718;2023-05-29T08:09:02;16.00;49.80
20560;DHT22;10438;51.454;6.718;2023-05-29T08:11:28;16.00;40.60
20560;DHT22;10438;51.454;6.718;2023-05-29T08:13:53;16.10;43.40
20560;DHT22;10438;51.454;6.718;2023-05-29T08:16:19;16.20;41.10
20560;DHT22;10438;51.454;6.718;2023-05-29T08:18:44;16.30;41.80
20560;DHT22;10438;51.454;6.718;2023-05-29T08:21:10;16.40;41.10
20560;DHT22;10438;51.454;6.718;2023-05-29T08:23:37;16.50;42.10
20560;DHT22;10438;51.454;6.718;2023-05-29T08:26:03;16.60;36.10
20560;DHT22;10438;51.454;6.718;2023-05-29T08:28:28;16.60;38.50
20560;DHT22;10438;51.454;6.718;2023-05-29T08:30:55;16.70;39.60
20560;DHT22;10438;51.454;6.718;2023-05-29T08:33:20;16.50;33.10
20560;DHT22;10438;51.454;6.718;2023-05-29T08:35:46;16.60;38.20
20560;DHT22;10438;51.454;6.718;2023-05-29T08:38:12;16.70;35.10
20560;DHT22;10438;51.454;6.718;2023-05-29T08:40:37;16.80;33.10
20560;DHT22;10438;51.454;6.718;2023-05-29T08:43:14;16.90;28.80
20560;DHT22;10438;51.454;6.718;2023-05-29T08:45:44;17.00;24.00
20560;DHT22;10438;51.454;6.718;2023-05-29T08:48:11;17.30;29.80
20560;DHT22;10438;51.454;6.718;2023-05-29T08:50:46;17.40;27.90
20560;DHT22;10438;51.454;6.718;2023-05-29T08:53:13;17.60;23.80
20560;DHT22;10438;51.454;6.718;2023-05-29T08:55:39;17.50;21.80
20560;DHT22;10438;51.454;6.718;2023-05-29T08:58:05;17.70;25.70
20560;DHT22;10438;51.454;6.718;2023-05-29T09:00:32;17.90;25.40
20560;DHT22;10438;51.454;6.718;2023-05-29T09:02:58;18.00;14.90
20560;DHT22;10438;51.454;6.718;2023-05-29T09:05:25;18.10;15.40
20560;DHT22;10438;51.454;6.718;2023-05-29T09:07:53;18.20;16.90
20560;DHT22;10438;51.454;6.718;2023-05-29T09:10:19;18.20;6.80
20560;DHT22;10438;51.454;6.718;2023-05-29T09:12:46;18.00;7.20
20560;DHT22;10438;51.454;6.718;2023-05-29T09:15:20;18.10;15.50
20560;DHT22;10438;51.454;6.718;2023-05-29T09:17:52;17.80;11.80
20560;DHT22;10438;51.454;6.718;2023-05-29T09:20:20;17.90;16.50
20560;DHT22;10438;51.454;6.718;2023-05-29T09:23:03;17.90;9.60
20560;DHT22;10438;51.454;6.718;2023-05-29T09:25:32;17.80;15.40
20560;DHT22;10438;51.454;6.718;2023-05-29T09:28:03;18.00;8.40
20560;DHT22;10438;51.454;6.718;2023-05-29T09:33:00;18.30;11.80
20560;DHT22;10438;51.454;6.718;2023-05-29T09:35:31;18.40;8.90
20560;DHT22;10438;51.454;6.718;2023-05-29T09:37:57;18.40;5.20
20560;DHT22;10438;51.454;6.718;2023-05-29T09:40:22;18.40;1.80
20560;DHT22;10438;51.454;6.718;2023-05-29T09:42:48;18.40;3.80
20560;DHT22;10438;51.454;6.718;2023-05-29T09:45:17;18.30;4.50
20560;DHT22;10438;51.454;6.718;2023-05-29T09:47:43;18.70;5.90
20560;DHT22;10438;51.454;6.718;2023-05-29T09:50:18;18.80;5.60
20560;DHT22;10438;51.454;6.718;2023-05-29T09:52:45;19.10;3.50
20560;DHT22;10438;51.454;6.718;2023-05-29T09:55:13;19.20;1.00
20560;DHT22;10438;51.454;6.718;2023-05-29T09:57:45;19.30;1.00
20560;DHT22;10438;51.454;6.718;2023-05-29T10:00:12;19.30;1.00
20560;DHT22;10438;51.454;6.718;2023-05-29T10:02:38;19.40;1.00
20560;DHT22;10438;51.454;6.718;2023-05-29T10:05:06;19.60;1.00
20560;DHT22;10438;51.454;6.718;2023-05-29T10:07:35;19.50;1.00
20560;DHT22;10438;51.454;6.718;2023-05-29T10:10:04;19.50;1.00
20560;DHT22;10438;51.454;6.718;2023-05-29T10:12:32;19.60;1.00
20560;DHT22;10438;51.454;6.718;2023-05-29T10:15:00;19.20;1.00
20560;DHT22;10438;51.454;6.718;2023-05-29T10:17:32;19.10;1.00
20560;DHT22;10438;51.454;6.718;2023-05-29T10:20:01;19.50;1.00
20560;DHT22;10438;51.454;6.718;2023-05-29T10:22:27;19.80;1.00
20560;DHT22;10438;51.454;6.718;2023-05-29T10:24:53;19.50;1.00
20560;DHT22;10438;51.454;6.718;2023-05-29T10:27:21;19.70;1.00
20560;DHT22;10438;51.454;6.718;2023-05-29T10:29:55;20.20;1.00
20560;DHT22;10438;51.454;6.718;2023-05-29T10:32:47;20.50;1.00
20560;DHT22;10438;51.454;6.718;2023-05-29T10:35:25;20.60;1.00
20560;DHT22;10438;51.454;6.718;2023-05-29T10:40:26;21.00;1.00
20560;DHT22;10438;51.454;6.718;2023-05-29T10:42:52;20.90;1.00
20560;DHT22;10438;51.454;6.718;2023-05-29T10:50:37;21.20;1.00
20560;DHT22;10438;51.454;6.718;2023-05-29T10:53:23;20.70;1.00
20560;DHT22;10438;51.454;6.718;2023-05-29T10:55:51;21.20;1.00
20560;DHT22;10438;51.454;6.718;2023-05-29T10:58:21;21.20;1.00
20560;DHT22;10438;51.454;6.718;2023-05-29T11:00:48;21.40;1.00
20560;DHT22;10438;51.454;6.718;2023-05-29T11:03:15;21.60;1.00
20560;DHT22;10438;51.454;6.718;2023-05-29T11:08:47;21.00;1.00
20560;DHT22;10438;51.454;6.718;2023-05-29T11:11:14;21.30;1.00
20560;DHT22;10438;51.454;6.718;2023-05-29T11:13:40;21.60;1.00
20560;DHT22;10438;51.454;6.718;2023-05-29T11:16:14;21.80;1.00
20560;DHT22;10438;51.454;6.718;2023-05-29T11:18:45;21.90;1.00
20560;DHT22;10438;51.454;6.718;2023-05-29T11:21:44;22.00;1.00
20560;DHT22;10438;51.454;6.718;2023-05-29T11:24:22;21.80;1.00
20560;DHT22;10438;51.454;6.718;2023-05-29T11:26:51;21.60;1.00
20560;DHT22;10438;51.454;6.718;2023-05-29T11:29:24;21.40;1.00
20560;DHT22;10438;51.454;6.718;2023-05-29T11:31:57;21.50;1.00
20560;DHT22;10438;51.454;6.718;2023-05-29T11:34:25;21.70;1.00
20560;DHT22;10438;51.454;6.718;2023-05-29T11:36:53;21.90;1.00
20560;DHT22;10438;51.454;6.718;2023-05-29T11:39:18;21.50;1.00
20560;DHT22;10438;51.454;6.718;2023-05-29T11:41:44;21.50;1.00
20560;DHT22;10438;51.454;6.718;2023-05-29T11:44:13;21.50;1.00
20560;DHT22;10438;51.454;6.718;2023-05-29T11:46:39;21.80;1.00
20560;DHT22;10438;51.454;6.718;2023-05-29T11:49:05;21.80;1.00
20560;DHT22;10438;51.454;6.718;2023-05-29T11:51:31;22.30;1.00
20560;DHT22;10438;51.454;6.718;2023-05-29T11:53:56;22.60;1.00
20560;DHT22;10438;51.454;6.718;2023-05-29T11:56:29;22.80;1.00
20560;DHT22;10438;51.454;6.718;2023-05-29T11:58:58;22.20;1.00
20560;DHT22;10438;51.454;6.718;2023-05-29T12:01:25;22.20;1.00
20560;DHT22;10438;51.454;6.718;2023-05-29T12:03:52;22.30;1.00
20560;DHT22;10438;51.454;6.718;2023-05-29T12:06:34;22.60;1.00
20560;DHT22;10438;51.454;6.718;2023-05-29T12:09:02;22.30;1.00
20560;DHT22;10438;51.454;6.718;2023-05-29T12:11:29;22.50;1.00
20560;DHT22;10438;51.454;6.718;2023-05-29T12:13:58;22.50;1.00
20560;DHT22;10438;51.454;6.718;2023-05-29T12:16:32;22.40;1.00
20560;DHT22;10438;51.454;6.718;2023-05-29T12:18:59;22.40;1.00
20560;DHT22;10438;51.454;6.718;2023-05-29T12:21:27;22.00;1.00
20560;DHT22;10438;51.454;6.718;2023-05-29T12:23:53;22.10;1.00
20560;DHT22;10438;51.454;6.718;2023-05-29T12:26:22;22.20;1.00
20560;DHT22;10438;51.454;6.718;2023-05-29T12:28:50;22.30;1.00
20560;DHT22;10438;51.454;6.718;2023-05-29T12:31:27;22.40;1.00
20560;DHT22;10438;51.454;6.718;2023-05-29T12:33:53;22.40;1.00
20560;DHT22;10438;51.454;6.718;2023-05-29T12:36:19;22.40;1.00
20560;DHT22;10438;51.454;6.718;2023-05-29T12:38:49;22.10;1.00
20560;DHT22;10438;51.454;6.718;2023-05-29T12:41:26;22.00;1.00
20560;DHT22;10438;51.454;6.718;2023-05-29T12:43:56;22.30;1.00
20560;DHT22;10438;51.454;6.718;2023-05-29T12:46:25;22.70;1.00
20560;DHT22;10438;51.454;6.718;2023-05-29T12:48:54;22.70;1.00
20560;DHT22;10438;51.454;6.718;2023-05-29T12:51:27;22.00;1.00
20560;DHT22;10438;51.454;6.718;2023-05-29T12:53:53;21.70;1.00
20560;DHT22;10438;51.454;6.718;2023-05-29T12:56:24;21.90;1.00
20560;DHT22;10438;51.454;6.718;2023-05-29T12:58:51;22.30;1.00
20560;DHT22;10438;51.454;6.718;2023-05-29T13:01:17;22.40;1.00
20560;DHT22;10438;51.454;6.718;2023-05-29T13:03:43;22.40;1.00
20560;DHT22;10438;51.454;6.718;2023-05-29T13:06:10;22.40;1.00
20560;DHT22;10438;51.454;6.718;2023-05-29T13:08:35;22.00;1.00
20560;DHT22;10438;51.454;6.718;2023-05-29T13:11:01;22.30;1.00
20560;DHT22;10438;51.454;6.718;2023-05-29T13:13:27;22.60;1.00
20560;DHT22;10438;51.454;6.718;2023-05-29T13:15:52;22.60;1.00
20560;DHT22;10438;51.454;6.718;2023-05-29T13:18:18;22.80;1.00
20560;DHT22;10438;51.454;6.718;2023-05-29T13:20:43;22.80;1.00
20560;DHT22;10438;51.454;6.718;2023-05-29T13:23:09;23.00;1.00
20560;DHT22;10438;51.454;6.718;2023-05-29T13:25:35;22.70;1.00
20560;DHT22;10438;51.454;6.718;2023-05-29T13:28:00;22.80;1.00
20560;DHT22;10438;51.454;6.718;2023-05-29T13:30:26;22.80;1.00
20560;DHT22;10438;51.454;6.718;2023-05-29T13:32:53;22.60;1.00
20560;DHT22;10438;51.454;6.718;2023-05-29T13:35:19;22.60;1.00
20560;DHT22;10438;51.454;6.718;2023-05-29T13:37:45;22.90;1.00
20560;DHT22;10438;51.454;6.718;2023-05-29T13:40:11;23.20;1.00
20560;DHT22;10438;51.454;6.718;2023-05-29T13:42:38;23.20;1.00
20560;DHT22;10438;51.454;6.718;2023-05-29T13:45:04;23.50;1.00
20560;DHT22;10438;51.454;6.718;2023-05-29T13:47:31;22.70;1.00
20560;DHT22;10438;51.454;6.718;2023-05-29T13:49:58;22.80;1.00
20560;DHT22;10438;51.454;6.718;2023-05-29T13:52:23;22.90;1.00
20560;DHT22;10438;51.454;6.718;2023-05-29T13:54:49;23.00;1.00
20560;DHT22;10438;51.454;6.718;2023-05-29T13:57:15;22.80;1.00
20560;DHT22;10438;51.454;6.718;2023-05-29T13:59:40;22.90;1.00
20560;DHT22;10438;51.454;6.718;2023-05-29T14:02:06;22.70;1.00
20560;DHT22;10438;51.454;6.718;2023-05-29T14:04:33;22.90;1.00
20560;DHT22;10438;51.454;6.718;2023-05-29T14:06:59;22.70;1.00
20560;DHT22;10438;51.454;6.718;2023-05-29T14:09:25;23.00;1.00
20560;DHT22;10438;51.454;6.718;2023-05-29T14:11:54;23.20;1.00
20560;DHT22;10438;51.454;6.718;2023-05-29T14:14:20;23.40;1.00
20560;DHT22;10438;51.454;6.718;2023-05-29T14:16:46;23.40;1.00
20560;DHT22;10438;51.454;6.718;2023-05-29T14:19:12;23.10;1.00
20560;DHT22;10438;51.454;6.718;2023-05-29T14:21:37;22.80;1.00
20560;DHT22;10438;51.454;6.718;2023-05-29T14:24:03;22.50;1.00
20560;DHT22;10438;51.454;6.718;2023-05-29T14:26:28;22.20;1.00
20560;DHT22;10438;51.454;6.718;2023-05-29T14:28:54;22.40;1.00
20560;DHT22;10438;51.454;6.718;2023-05-29T14:31:19;22.50;1.00
20560;DHT22;10438;51.454;6.718;2023-05-29T14:33:45;22.80;1.00
20560;DHT22;10438;51.454;6.718;2023-05-29T14:36:10;23.00;1.00
20560;DHT22;10438;51.454;6.718;2023-05-29T14:38:36;23.20;1.00
20560;DHT22;10438;51.454;6.718;2023-05-29T14:41:02;23.60;1.00
20560;DHT22;10438;51.454;6.718;2023-05-29T14:43:27;22.70;1.00
20560;DHT22;10438;51.454;6.718;2023-05-29T14:45:53;23.10;1.00
20560;DHT22;10438;51.454;6.718;2023-05-29T14:48:18;22.80;1.00
20560;DHT22;10438;51.454;6.718;2023-05-29T14:50:44;22.90;1.00
20560;DHT22;10438;51.454;6.718;2023-05-29T14:53:09;23.30;1.00
20560;DHT22;10438;51.454;6.718;2023-05-29T14:55:35;23.70;1.00
20560;DHT22;10438;51.454;6.718;2023-05-29T14:58:04;24.10;1.00
20560;DHT22;10438;51.454;6.718;2023-05-29T15:00:30;23.50;1.00
20560;DHT22;10438;51.454;6.718;2023-05-29T15:02:56;23.60;1.00
20560;DHT22;10438;51.454;6.718;2023-05-29T15:05:27;23.40;1.00
20560;DHT22;10438;51.454;6.718;2023-05-29T15:07:53;23.50;1.00
20560;DHT22;10438;51.454;6.718;2023-05-29T15:10:24;23.20;1.00
20560;DHT22;10438;51.454;6.718;2023-05-29T15:12:51;23.70;1.00
20560;DHT22;10438;51.454;6.718;2023-05-29T15:15:31;23.90;1.00
20560;DHT22;10438;51.454;6.718;2023-05-29T15:17:56;24.10;1.00
20560;DHT22;10438;51.454;6.718;2023-05-29T15:20:23;24.80;1.00
20560;DHT22;10438;51.454;6.718;2023-05-29T15:22:49;24.60;1.00
20560;DHT22;10438;51.454;6.718;2023-05-29T15:25:16;24.50;1.00
20560;DHT22;10438;51.454;6.718;2023-05-29T15:27:42;24.90;1.00
20560;DHT22;10438;51.454;6.718;2023-05-29T15:30:09;25.10;1.00
20560;DHT22;10438;51.454;6.718;2023-05-29T15:32:35;25.30;1.00
20560;DHT22;10438;51.454;6.718;2023-05-29T15:35:01;25.30;1.00
20560;DHT22;10438;51.454;6.718;2023-05-29T15:37:27;25.10;1.00
20560;DHT22;10438;51.454;6.718;2023-05-29T15:39:55;25.20;1.00
20560;DHT22;10438;51.454;6.718;2023-05-29T15:42:21;25.60;1.00
20560;DHT22;10438;51.454;6.718;2023-05-29T15:44:47;25.10;1.00
20560;DHT22;10438;51.454;6.718;2023-05-29T15:47:12;25.10;1.00
20560;DHT22;10438;51.454;6.718;2023-05-29T15:49:38;25.30;1.00
20560;DHT22;10438;51.454;6.718;2023-05-29T15:52:03;24.90;1.00